Charlotte Douglas International Airport
KCLT : rendu visible

Aérodrome :











RETROUVEZ-NOUS SUR...

 
LOGIN :

S'inscrire | Disclaimer

   EN    FR    IT 

 









Légende :    VFR   VFR Marginal   IFR   IFR Intensif   IFR Très Intensif
Visi : 
Plafond : 
>= 8 km
>= 3000ft
5 à 8 km
1000 à 3000 ft
1500m à 5 km
500 à 1000 ft
800 à 1500m
200 à 500 ft
< 800m
< 200 ft
Symboles :   Orages  Brouillard  Fortes neiges  Fortes précipitations  Vent > 20 kt






- Altitude de l'aérodrome : 748 ft
- Code IATA : CLT


KCLT - Charlotte Douglas International

DERNIER METAR :
  • 081152Z 00000KT 10SM SCT250 17/13 A2981 RMK AO2 SLP086 T01670128 10194 20150 53009

METARs EXPIRÉS :
  • 081052Z 24003KT 10SM FEW250 15/12 A2979 RMK AO2 SLP079 T01500117
  • 080952Z 00000KT 10SM CLR 16/12 A2977 RMK AO2 SLP075 T01610122

TAF KCLT
Valide du 08 à 12h jusqu'au 09 à 18h UTC


081131Z 0812/0918 24005KT P6SM FEW250
FM081800 26009G18KT P6SM VCSH SCT050
PROB30 0821/0823 4SM TSRA BR BKN040CB
FM090100 24005KT P6SM SCT070
PROB30 0910/0914 4SM TSRA BR BKN030CB
FM091500 28010G20KT P6SM SCT100



MET'MAP, la Météo Aéronautique d'un coup d'oeil ! - Copyright ORBIFLY Décembre 2007 - Disclaimer

ORBIFLY MET'MAP TEAM :

Programmation & Développement : Alexandra Zaïnal
Sur une idée originale de : Baudouin d'Aumeries
Assistance à la programmation : Marc-Olivier Méhu
Soutien technique & logistique : Manuel Goepfert

Contact : metmap@orbifly.com




SOURCES & CREDITS :

   NOAA       Earth
Advisory